Time;durP1;ratioP1;P1;durP2;ratioP2;P2;SDS_P1;SDS_P2;PMS_P1;PMS_P2;Temp;Humidity;BMP_temperature;BMP_pressure;BME280_temperature;BME280_humidity;BME280_pressure;Samples;Min_cycle;Max_cycle;Signal;HPM_P1;HPM_P2
2022/09/10 06:51:32;;;;;;;1.10;1.00;;;15.30;99.90;;;;;;5062072;28;20394;-91
2022/09/10 06:53:58;;;;;;;1.92;0.80;;;15.30;99.90;;;;;;5045289;28;20506;-85
2022/09/10 06:56:33;;;;;;;0.80;0.80;;;15.30;99.90;;;;;;5044260;28;20033;-88
2022/09/10 06:58:58;;;;;;;1.10;0.82;;;15.30;99.90;;;;;;5038926;28;20473;-86
2022/09/10 07:01:24;;;;;;;0.77;0.77;;;15.30;99.90;;;;;;5039515;28;20096;-92
2022/09/10 07:03:55;;;;;;;1.55;0.98;;;15.40;99.90;;;;;;5041866;28;20087;-87
2022/09/10 07:06:22;;;;;;;1.45;1.05;;;15.40;99.90;;;;;;5037257;28;20043;-88
2022/09/10 07:08:48;;;;;;;1.77;1.08;;;15.50;99.90;;;;;;5038754;28;20116;-79
2022/09/10 07:11:15;;;;;;;1.90;1.15;;;15.40;99.90;;;;;;5043388;28;20129;-87
2022/09/10 07:13:42;;;;;;;3.03;0.80;;;15.50;99.90;;;;;;5037559;28;20065;-88
2022/09/10 07:16:08;;;;;;;2.08;1.10;;;15.50;99.90;;;;;;5053341;28;20013;-92
2022/09/10 07:18:34;;;;;;;0.80;0.75;;;15.60;99.90;;;;;;5054913;28;20026;-88
2022/09/10 07:21:10;;;;;;;1.55;1.05;;;15.60;99.90;;;;;;5042180;28;20578;-86
2022/09/10 07:23:37;;;;;;;1.80;1.10;;;15.80;99.90;;;;;;5034044;28;20533;-92
2022/09/10 07:26:10;;;;;;;0.82;0.80;;;15.90;99.90;;;;;;5038084;28;20057;-88
2022/09/10 07:28:36;;;;;;;0.80;0.80;;;16.00;99.90;;;;;;5041718;28;20347;-85
2022/09/10 07:31:10;;;;;;;6.00;1.00;;;16.00;99.90;;;;;;5036277;28;20036;-88
2022/09/10 07:33:35;;;;;;;2.05;0.88;;;16.10;99.90;;;;;;5037073;28;20546;-95
2022/09/10 07:36:02;;;;;;;1.25;1.00;;;16.10;99.90;;;;;;5034308;28;20022;-93
2022/09/10 07:38:27;;;;;;;1.05;0.88;;;16.20;99.90;;;;;;5026387;28;20030;-87
2022/09/10 07:40:53;;;;;;;0.77;0.77;;;16.30;99.90;;;;;;5034505;28;20083;-89
2022/09/10 07:43:18;;;;;;;0.98;0.70;;;16.40;99.90;;;;;;5028242;28;20365;-87
2022/09/10 07:45:44;;;;;;;1.40;0.90;;;16.40;99.90;;;;;;5033569;28;20624;-90
2022/09/10 07:48:10;;;;;;;1.92;1.10;;;16.50;99.90;;;;;;5034021;28;20113;-85
2022/09/10 07:50:37;;;;;;;2.65;0.98;;;16.60;99.90;;;;;;5025613;28;20500;-86
2022/09/10 07:53:02;;;;;;;1.15;0.80;;;16.70;99.90;;;;;;5030269;28;20044;-93
2022/09/10 07:55:30;;;;;;;4.68;1.00;;;16.80;99.90;;;;;;5043847;28;20978;-95
2022/09/10 07:57:55;;;;;;;1.48;1.00;;;16.90;99.90;;;;;;5046532;28;20021;-93
2022/09/10 08:00:21;;;;;;;0.60;0.60;;;17.00;99.90;;;;;;5042088;28;20083;-79
2022/09/10 08:02:46;;;;;;;1.38;0.95;;;17.20;99.90;;;;;;5020668;28;20037;-82
2022/09/10 08:05:12;;;;;;;0.65;0.60;;;17.20;99.90;;;;;;5023005;28;20029;-82
2022/09/10 08:07:39;;;;;;;0.68;0.68;;;17.30;99.90;;;;;;5015364;28;20060;-81
2022/09/10 08:10:08;;;;;;;1.40;1.30;;;17.40;99.90;;;;;;5016377;28;20022;-80
2022/09/10 08:12:38;;;;;;;2.80;0.63;;;17.50;99.90;;;;;;5023815;28;20056;-84
2022/09/10 08:15:07;;;;;;;0.68;0.68;;;17.60;99.90;;;;;;5028080;28;20396;-87
2022/09/10 08:17:35;;;;;;;1.33;0.82;;;17.70;99.90;;;;;;5023090;28;20038;-93
2022/09/10 08:20:03;;;;;;;1.13;0.75;;;17.80;99.90;;;;;;5014754;28;20374;-89
2022/09/10 08:22:28;;;;;;;0.85;0.70;;;17.90;99.90;;;;;;5024745;28;20041;-88
2022/09/10 08:24:54;;;;;;;0.60;0.60;;;17.80;99.90;;;;;;5016957;28;20030;-93
2022/09/10 08:27:19;;;;;;;1.85;0.98;;;17.90;99.90;;;;;;5018361;28;20033;-89
2022/09/10 08:29:45;;;;;;;2.10;0.80;;;18.00;99.90;;;;;;5015300;28;20022;-86
2022/09/10 08:32:13;;;;;;;0.57;0.57;;;18.00;99.90;;;;;;5020288;28;20026;-83
2022/09/10 08:34:39;;;;;;;0.75;0.70;;;18.20;99.90;;;;;;5015161;28;20056;-85
2022/09/10 08:37:05;;;;;;;0.70;0.68;;;18.30;99.90;;;;;;5018466;28;20022;-84
2022/09/10 08:39:30;;;;;;;0.50;0.50;;;18.40;99.90;;;;;;5022859;28;20557;-80
2022/09/10 08:42:02;;;;;;;0.60;0.57;;;18.40;99.90;;;;;;5016507;28;20034;-83
2022/09/10 08:44:34;;;;;;;1.13;1.08;;;18.50;99.90;;;;;;5016524;28;20045;-87
2022/09/10 08:47:03;;;;;;;0.80;0.70;;;18.60;99.90;;;;;;5022865;28;20659;-93
2022/09/10 08:50:12;;;;;;;1.38;0.60;;;18.50;99.90;;;;;;5019687;28;20447;-90
2022/09/10 08:52:44;;;;;;;0.68;0.65;;;18.60;99.90;;;;;;5022214;28;20021;-87
2022/09/10 08:55:17;;;;;;;0.50;0.50;;;18.60;99.90;;;;;;5018088;28;20083;-89
2022/09/10 08:58:12;;;;;;;0.60;0.60;;;18.60;99.90;;;;;;5015128;28;20042;-85
2022/09/10 09:00:39;;;;;;;1.40;0.80;;;18.70;99.90;;;;;;5013821;28;20021;-84
2022/09/10 09:03:23;;;;;;;0.63;0.60;;;18.70;99.90;;;;;;5009511;28;20049;-76
2022/09/10 09:05:58;;;;;;;2.92;0.68;;;18.80;99.90;;;;;;5009037;28;20913;-79
2022/09/10 09:08:28;;;;;;;0.55;0.55;;;19.00;99.90;;;;;;5014295;28;20034;-84
2022/09/10 09:11:09;;;;;;;1.90;0.70;;;19.10;99.90;;;;;;5008995;28;20061;-81
2022/09/10 09:13:47;;;;;;;0.47;0.47;;;19.30;99.90;;;;;;5008297;28;20057;-74
2022/09/10 09:16:39;;;;;;;0.68;0.68;;;19.40;99.90;;;;;;5010725;28;20277;-78
2022/09/10 09:19:09;;;;;;;;;;;19.60;99.90;;;;;;5023874;28;20026;-81
2022/09/10 09:21:53;;;;;;;0.77;0.77;;;19.50;99.90;;;;;;5026613;28;19905;-81
2022/09/10 09:24:21;;;;;;;1.70;0.80;;;19.70;99.90;;;;;;5029401;28;20038;-81
2022/09/10 09:26:47;;;;;;;0.82;0.68;;;19.80;99.90;;;;;;5017062;28;20033;-84
2022/09/10 09:29:23;;;;;;;0.82;0.70;;;19.60;99.90;;;;;;5018467;28;20037;-82
2022/09/10 09:31:52;;;;;;;0.57;0.57;;;19.70;99.90;;;;;;5023451;28;20434;-83
2022/09/10 09:34:42;;;;;;;0.40;0.40;;;19.90;99.90;;;;;;5026750;28;20037;-81
2022/09/10 09:37:18;;;;;;;3.13;0.70;;;20.00;99.90;;;;;;5016783;28;20025;-75
2022/09/10 09:40:05;;;;;;;0.85;0.50;;;20.00;99.90;;;;;;5011034;28;20064;-75
2022/09/10 09:42:46;;;;;;;1.83;0.65;;;20.30;99.90;;;;;;5024420;28;20037;-74
2022/09/10 09:45:37;;;;;;;1.48;0.52;;;20.50;99.90;;;;;;5016656;28;20455;-75
2022/09/10 09:48:05;;;;;;;0.40;0.40;;;20.40;99.00;;;;;;5024787;28;20038;-74
2022/09/10 09:50:33;;;;;;;2.72;0.88;;;20.50;99.10;;;;;;5013430;28;20053;-73
2022/09/10 09:52:59;;;;;;;0.55;0.55;;;20.70;97.90;;;;;;5016140;28;20025;-75
2022/09/10 09:55:30;;;;;;;1.17;0.60;;;20.80;98.30;;;;;;5025764;28;20021;-75
2022/09/10 09:58:20;;;;;;;0.55;0.40;;;21.10;97.00;;;;;;5028952;28;20586;-75
2022/09/10 10:01:04;;;;;;;0.43;0.43;;;21.10;96.80;;;;;;5033635;28;20575;-76
2022/09/10 10:03:57;;;;;;;0.85;0.63;;;23.30;92.00;;;;;;5019100;28;20060;-74
2022/09/10 10:06:27;;;;;;;1.27;0.60;;;24.60;83.10;;;;;;5018627;28;20045;-75
2022/09/10 10:09:05;;;;;;;0.95;0.60;;;24.90;79.10;;;;;;5010558;28;20065;-85
2022/09/10 10:11:47;;;;;;;0.93;0.70;;;24.30;77.70;;;;;;5010922;28;20030;-83
2022/09/10 10:14:29;;;;;;;2.03;0.68;;;25.40;74.20;;;;;;5014540;28;20032;-77
2022/09/10 10:16:55;;;;;;;0.65;0.60;;;23.60;80.40;;;;;;5017772;28;20025;-77
2022/09/10 10:19:33;;;;;;;0.57;0.57;;;22.50;85.70;;;;;;5015423;28;20423;-77
2022/09/10 10:22:13;;;;;;;0.63;0.60;;;26.70;73.00;;;;;;5017125;28;21334;-77
2022/09/10 10:24:41;;;;;;;0.50;0.50;;;29.00;61.50;;;;;;5021128;28;20056;-76
2022/09/10 10:27:18;;;;;;;0.50;0.50;;;27.00;65.00;;;;;;5021062;28;20582;-77
2022/09/10 10:30:10;;;;;;;1.83;0.60;;;24.80;73.60;;;;;;5011285;28;20404;-76
2022/09/10 10:33:10;;;;;;;0.40;0.40;;;25.20;73.10;;;;;;5014637;28;20037;-77
2022/09/10 10:35:58;;;;;;;3.40;0.55;;;29.40;60.10;;;;;;5011035;28;20029;-77
2022/09/10 10:38:34;;;;;;;0.90;0.60;;;31.40;53.90;;;;;;5006861;28;20051;-77
2022/09/10 10:41:28;;;;;;;1.40;0.55;;;30.80;53.40;;;;;;5007724;28;20084;-75
2022/09/10 10:44:22;;;;;;;0.52;0.52;;;30.50;52.30;;;;;;5013504;28;20437;-76
2022/09/10 10:47:19;;;;;;;0.73;0.52;;;29.30;55.10;;;;;;5015188;28;20798;-75
2022/09/10 10:50:07;;;;;;;0.77;0.77;;;25.80;73.80;;;;;;5007061;28;20049;-76
2022/09/10 10:52:52;;;;;;;0.40;0.40;;;26.60;91.60;;;;;;5008286;28;20117;-75
2022/09/10 10:55:22;;;;;;;0.50;0.50;;;;;;;;;;5012986;28;20092;-75
2022/09/10 10:57:51;;;;;;;0.63;0.63;;;;;;;;;;5012668;28;20419;-75
2022/09/10 11:00:19;;;;;;;1.48;0.70;;;22.50;88.10;;;;;;5018772;28;20045;-76
2022/09/10 11:03:09;;;;;;;0.47;0.47;;;21.90;99.90;;;;;;5016330;28;20036;-76
2022/09/10 11:05:41;;;;;;;0.65;0.57;;;22.20;99.90;;;;;;5012687;28;20088;-76
2022/09/10 11:08:13;;;;;;;0.50;0.50;;;22.40;99.90;;;;;;5011083;28;20080;-77
2022/09/10 11:10:43;;;;;;;2.05;0.55;;;23.80;99.90;;;;;;5010902;28;20118;-74
2022/09/10 11:13:21;;;;;;;3.15;0.68;;;24.20;94.00;;;;;;5021953;28;20018;-75
2022/09/10 11:16:20;;;;;;;0.50;0.50;;;23.30;96.10;;;;;;5015223;28;20029;-76
2022/09/10 11:18:48;;;;;;;0.55;0.55;;;22.90;96.60;;;;;;5017701;28;20661;-73
2022/09/10 11:21:37;;;;;;;0.60;0.60;;;23.30;96.40;;;;;;5010794;28;20030;-73
2022/09/10 11:24:05;;;;;;;0.52;0.50;;;23.20;97.50;;;;;;5017227;28;20387;-74
2022/09/10 11:26:42;;;;;;;0.82;0.50;;;23.30;99.90;;;;;;5013745;28;20040;-73
2022/09/10 11:29:16;;;;;;;0.55;0.55;;;23.60;99.90;;;;;;5020821;28;20049;-73
2022/09/10 11:31:50;;;;;;;0.30;0.30;;;23.50;99.90;;;;;;5012938;28;20044;-73
2022/09/10 11:34:42;;;;;;;0.40;0.40;;;24.30;99.90;;;;;;5014344;28;20080;-73
2022/09/10 11:37:28;;;;;;;1.27;0.52;;;25.50;99.90;;;;;;5020033;28;20026;-73
2022/09/10 11:39:55;;;;;;;0.30;0.30;;;;;;;;;;5014279;28;20080;-79
2022/09/10 11:42:24;;;;;;;0.40;0.40;;;32.30;95.70;;;;;;5016976;28;20038;-76
2022/09/10 11:45:01;;;;;;;1.20;0.45;;;30.90;81.30;;;;;;5017833;28;20116;-74
2022/09/10 11:47:34;;;;;;;0.40;0.40;;;26.80;65.50;;;;;;5027815;28;20029;-73
2022/09/10 11:50:05;;;;;;;0.60;0.40;;;24.30;84.00;;;;;;5025868;28;20523;-75
2022/09/10 11:52:35;;;;;;;1.55;0.93;;;23.30;90.70;;;;;;5020461;28;20033;-75
2022/09/10 11:55:02;;;;;;;0.63;0.57;;;22.80;85.10;;;;;;5030571;28;20025;-73
2022/09/10 11:58:03;;;;;;;1.52;0.50;;;22.50;86.50;;;;;;5015733;28;20054;-74
2022/09/10 12:00:44;;;;;;;2.50;0.70;;;22.50;90.20;;;;;;5014753;28;20049;-74
2022/09/10 12:03:32;;;;;;;0.60;0.50;;;22.40;90.20;;;;;;5013125;28;20041;-74
2022/09/10 12:06:22;;;;;;;0.40;0.40;;;22.70;91.00;;;;;;5027681;28;20040;-74
2022/09/10 12:09:14;;;;;;;0.40;0.40;;;23.10;90.60;;;;;;5033040;28;20776;-74
2022/09/10 12:11:55;;;;;;;0.57;0.50;;;24.40;86.40;;;;;;5027151;28;20061;-72
2022/09/10 12:14:20;;;;;;;0.50;0.50;;;23.90;86.20;;;;;;5010761;28;20030;-77
2022/09/10 12:16:51;;;;;;;1.27;0.90;;;23.70;89.50;;;;;;5030238;28;20033;-74
2022/09/10 12:19:22;;;;;;;0.75;0.60;;;24.70;88.20;;;;;;5034277;28;20021;-88
2022/09/10 12:21:50;;;;;;;;;;;24.30;85.40;;;;;;5012564;28;20048;-77
2022/09/10 12:24:33;;;;;;;0.93;0.80;;;24.00;88.90;;;;;;5032365;28;19909;-76
2022/09/10 12:27:00;;;;;;;1.70;0.77;;;;;;;;;;5020996;28;20034;-75
2022/09/10 12:29:32;;;;;;;1.10;0.60;;;38.70;52.40;;;;;;5019849;28;20033;-74
2022/09/10 12:32:06;;;;;;;0.50;0.50;;;37.80;41.80;;;;;;5024571;28;20036;-82
2022/09/10 12:34:38;;;;;;;1.00;0.50;;;40.00;36.10;;;;;;5027583;28;20037;-79
2022/09/10 12:37:03;;;;;;;0.82;0.40;;;33.30;42.40;;;;;;5024728;28;20045;-76
2022/09/10 12:39:29;;;;;;;0.40;0.40;;;35.60;42.20;;;;;;5018717;28;20571;-79
2022/09/10 12:41:58;;;;;;;2.80;0.40;;;34.50;41.40;;;;;;5018181;28;20022;-79
2022/09/10 12:44:35;;;;;;;0.47;0.47;;;33.10;44.40;;;;;;5014651;28;20026;-76
2022/09/10 12:47:32;;;;;;;0.50;0.50;;;33.60;43.20;;;;;;5014589;28;20037;-77
2022/09/10 12:50:00;;;;;;;0.77;0.52;;;31.40;47.20;;;;;;5009747;28;20045;-75
2022/09/10 12:52:33;;;;;;;0.38;0.38;;;34.40;42.70;;;;;;5022215;28;20026;-74
2022/09/10 12:55:20;;;;;;;0.98;0.98;;;37.20;38.60;;;;;;5019007;28;20473;-76
2022/09/10 12:58:01;;;;;;;1.00;0.75;;;40.60;33.90;;;;;;5029218;28;20108;-75
2022/09/10 13:01:03;;;;;;;0.40;0.38;;;36.80;37.40;;;;;;5023175;28;20037;-75
2022/09/10 13:03:29;;;;;;;0.50;0.50;;;34.80;40.40;;;;;;5020364;28;20095;-76
2022/09/10 13:05:59;;;;;;;0.55;0.50;;;39.90;35.30;;;;;;5015800;28;20380;-77
2022/09/10 13:11:51;;;;;;;0.38;0.38;;;40.70;31.80;;;;;;5020575;28;20128;-77
2022/09/10 13:14:24;;;;;;;0.80;0.40;;;39.60;32.60;;;;;;5015591;28;20606;-77
2022/09/10 13:16:50;;;;;;;0.38;0.38;;;39.80;32.60;;;;;;5023579;28;20041;-77
2022/09/10 13:19:16;;;;;;;0.30;0.30;;;39.70;31.50;;;;;;5016649;28;20025;-77
2022/09/10 13:21:42;;;;;;;0.40;0.40;;;40.20;32.90;;;;;;5022720;28;20029;-77
2022/09/10 13:24:59;;;;;;;2.95;2.08;;;42.20;31.20;;;;;;5015030;28;20051;-78
2022/09/10 13:27:39;;;;;;;0.40;0.40;;;40.50;31.60;;;;;;5010625;28;20598;-75
2022/09/10 13:30:13;;;;;;;0.30;0.30;;;36.60;36.30;;;;;;5018384;28;20041;-75
2022/09/10 13:32:57;;;;;;;0.45;0.30;;;38.60;33.80;;;;;;5016784;28;20018;-75
2022/09/10 13:35:38;;;;;;;2.97;0.50;;;39.50;32.30;;;;;;5017444;28;20033;-75
2022/09/10 13:38:36;;;;;;;0.50;0.32;;;42.20;31.80;;;;;;5012413;28;20091;-75
2022/09/10 13:41:23;;;;;;;0.85;0.38;;;44.60;42.70;;;;;;5015500;28;22378;-73
2022/09/10 13:44:24;;;;;;;1.10;0.40;;;42.90;29.60;;;;;;5008892;28;20022;-73
2022/09/10 13:46:52;;;;;;;;;;;44.90;28.60;;;;;;5016797;28;20091;-73
2022/09/10 13:49:28;;;;;;;0.40;0.40;;;42.50;29.50;;;;;;5011127;28;19909;-74
2022/09/10 13:51:57;;;;;;;0.40;0.40;;;35.50;37.30;;;;;;5014009;28;20037;-71
2022/09/10 13:54:48;;;;;;;1.95;0.57;;;28.80;46.70;;;;;;5014427;28;20025;-75
2022/09/10 13:57:39;;;;;;;0.70;0.47;;;27.10;51.00;;;;;;5019607;28;20025;-75
2022/09/10 14:00:11;;;;;;;0.55;0.50;;;27.50;51.20;;;;;;5022541;28;20154;-75
2022/09/10 14:02:47;;;;;;;0.50;0.50;;;26.90;53.10;;;;;;5013096;28;20068;-75
2022/09/10 14:05:40;;;;;;;0.75;0.40;;;32.30;45.20;;;;;;5008632;28;20026;-75
2022/09/10 14:08:19;;;;;;;0.30;0.30;;;35.40;46.00;;;;;;5016035;28;20040;-75
2022/09/10 14:11:10;;;;;;;1.17;0.60;;;37.20;44.50;;;;;;5014401;28;20026;-75
2022/09/10 14:13:47;;;;;;;1.17;0.40;;;38.90;46.10;;;;;;5009319;28;20066;-75
2022/09/10 14:16:20;;;;;;;1.98;0.60;;;38.30;35.60;;;;;;5015672;28;20026;-76
2022/09/10 14:18:52;;;;;;;1.10;0.40;;;37.10;37.60;;;;;;5033016;28;20029;-72
2022/09/10 14:21:25;;;;;;;1.98;0.57;;;36.20;37.70;;;;;;5014128;28;20085;-75
2022/09/10 14:23:54;;;;;;;0.60;0.60;;;36.20;38.10;;;;;;5020246;28;20499;-83
2022/09/10 14:26:25;;;;;;;0.50;0.50;;;37.60;38.00;;;;;;5013862;28;20041;-78
2022/09/10 14:29:02;;;;;;;0.70;0.70;;;38.60;35.90;;;;;;5021494;28;20618;-74
2022/09/10 14:31:32;;;;;;;2.78;0.85;;;37.50;36.50;;;;;;5010043;28;20092;-74
2022/09/10 14:34:18;;;;;;;0.88;0.68;;;32.60;43.70;;;;;;5019309;28;20018;-75
2022/09/10 14:36:43;;;;;;;0.70;0.55;;;31.60;55.20;;;;;;5009044;28;20021;-75
2022/09/10 14:39:18;;;;;;;1.23;0.90;;;35.00;50.70;;;;;;5010083;28;20563;-76
2022/09/10 14:41:44;;;;;;;0.60;0.52;;;34.30;53.50;;;;;;5013069;28;20041;-75
2022/09/10 14:44:22;;;;;;;0.55;0.55;;;36.40;50.00;;;;;;5013724;28;20106;-76
2022/09/10 14:46:56;;;;;;;0.60;0.60;;;35.60;39.50;;;;;;5018262;28;20034;-74
2022/09/10 14:49:30;;;;;;;0.57;0.57;;;28.40;66.40;;;;;;5011174;28;20025;-75
2022/09/10 14:51:57;;;;;;;0.68;0.68;;;28.20;67.40;;;;;;5020956;28;20032;-76
2022/09/10 14:54:23;;;;;;;0.60;0.60;;;26.10;88.50;;;;;;5014424;28;20545;-73
2022/09/10 14:56:49;;;;;;;0.88;0.68;;;24.70;88.00;;;;;;5013545;28;20472;-76
2022/09/10 14:59:32;;;;;;;1.27;0.70;;;24.00;85.70;;;;;;5012039;28;20029;-75
2022/09/10 15:02:00;;;;;;;0.65;0.65;;;23.20;93.70;;;;;;5010627;28;20025;-75
2022/09/10 15:04:28;;;;;;;0.85;0.85;;;24.10;92.30;;;;;;5014263;28;20026;-79
2022/09/10 15:06:58;;;;;;;0.88;0.68;;;28.70;76.80;;;;;;5010349;28;20204;-75
2022/09/10 15:09:26;;;;;;;0.60;0.60;;;32.20;65.30;;;;;;5001755;28;20049;-75
2022/09/10 15:12:18;;;;;;;0.70;0.70;;;28.00;70.50;;;;;;5021454;28;20391;-74
2022/09/10 15:14:43;;;;;;;0.75;0.75;;;25.30;84.60;;;;;;5017145;28;20053;-77
2022/09/10 15:17:14;;;;;;;1.65;1.15;;;27.60;85.10;;;;;;5022296;28;20552;-74
2022/09/10 15:19:39;;;;;;;2.17;0.87;;;33.80;55.70;;;;;;5010254;28;20548;-77
2022/09/10 15:22:04;;;;;;;1.20;1.10;;;34.00;61.00;;;;;;5023420;28;20148;-76
2022/09/10 15:24:30;;;;;;;0.70;0.70;;;35.00;64.00;;;;;;5018795;28;20042;-76
2022/09/10 15:26:56;;;;;;;5.07;0.93;;;37.40;71.60;;;;;;5014638;28;20040;-76
2022/09/10 15:29:22;;;;;;;0.70;0.70;;;38.70;54.10;;;;;;5015705;28;20026;-76
2022/09/10 15:31:48;;;;;;;0.60;0.60;;;35.70;58.00;;;;;;5019916;28;20029;-75
2022/09/10 15:34:14;;;;;;;0.75;0.75;;;31.40;68.60;;;;;;5021724;28;20031;-75
2022/09/10 15:36:40;;;;;;;1.08;0.80;;;34.40;61.30;;;;;;5015028;28;20018;-75
2022/09/10 15:39:06;;;;;;;0.65;0.60;;;36.30;58.30;;;;;;5017761;28;20037;-76
2022/09/10 15:41:40;;;;;;;0.60;0.60;;;36.50;58.40;;;;;;5028071;28;20739;-76
2022/09/10 15:44:06;;;;;;;0.63;0.63;;;37.10;56.30;;;;;;5015581;28;20030;-75
2022/09/10 15:46:34;;;;;;;1.05;0.77;;;36.10;57.70;;;;;;5034698;28;20498;-76
2022/09/10 15:49:03;;;;;;;0.60;0.60;;;36.60;57.50;;;;;;5025875;28;20063;-76
2022/09/10 15:51:29;;;;;;;1.25;0.63;;;38.50;56.00;;;;;;5020288;28;20045;-77
2022/09/10 15:53:54;;;;;;;0.82;0.77;;;38.70;56.30;;;;;;5019380;28;20223;-78
2022/09/10 15:56:25;;;;;;;0.70;0.70;;;28.50;91.50;;;;;;5014337;28;20038;-76
2022/09/10 15:58:55;;;;;;;2.25;0.68;;;;;;;;;;5017007;28;20113;-76
2022/09/10 16:01:23;;;;;;;1.05;0.70;;;27.30;93.20;;;;;;5020701;28;20030;-77
2022/09/10 16:03:51;;;;;;;1.40;1.00;;;28.10;74.50;;;;;;5022617;28;20029;-76
2022/09/10 16:06:18;;;;;;;0.95;0.82;;;27.80;75.80;;;;;;5019174;28;20055;-75
2022/09/10 16:09:10;;;;;;;1.23;0.80;;;27.50;77.30;;;;;;5021633;28;20034;-75
2022/09/10 16:11:38;;;;;;;0.63;0.63;;;30.20;72.10;;;;;;5017958;28;20037;-75
2022/09/10 16:14:06;;;;;;;0.60;0.60;;;32.60;66.50;;;;;;5020198;28;20057;-75
2022/09/10 16:16:33;;;;;;;1.10;0.82;;;32.90;66.20;;;;;;5017658;28;20025;-75
2022/09/10 16:18:59;;;;;;;3.72;1.30;;;32.70;65.20;;;;;;5017838;28;20033;-75
2022/09/10 16:21:31;;;;;;;1.13;0.80;;;31.50;68.00;;;;;;5022268;28;20037;-75
2022/09/10 16:23:58;;;;;;;2.78;2.05;;;28.10;75.40;;;;;;5011612;28;20400;-77
2022/09/10 16:26:27;;;;;;;1.15;1.05;;;25.80;87.30;;;;;;5011616;28;20392;-75
2022/09/10 16:28:55;;;;;;;1.00;0.95;;;24.00;94.30;;;;;;5012224;28;20112;-74
2022/09/10 16:31:23;;;;;;;4.78;2.67;;;23.50;92.60;;;;;;5020928;28;20689;-75
2022/09/10 16:33:49;;;;;;;25.90;17.88;;;23.00;94.50;;;;;;5025014;28;20743;-75
2022/09/10 16:36:17;;;;;;;3.35;2.30;;;22.90;94.80;;;;;;5022315;28;20033;-75
2022/09/10 16:38:44;;;;;;;1.15;0.90;;;22.70;95.20;;;;;;5010431;28;20417;-75
2022/09/10 16:41:13;;;;;;;0.93;0.93;;;22.50;96.60;;;;;;5012418;28;20088;-75
2022/09/10 16:43:40;;;;;;;0.68;0.68;;;22.00;97.50;;;;;;5015551;28;20022;-74
2022/09/10 16:46:11;;;;;;;1.40;0.90;;;21.90;94.70;;;;;;5015977;28;20033;-75
2022/09/10 16:48:38;;;;;;;0.98;0.93;;;21.70;96.30;;;;;;5017430;28;20419;-76
2022/09/10 16:51:14;;;;;;;1.40;0.88;;;21.60;98.40;;;;;;5014519;28;20049;-74
2022/09/10 16:53:43;;;;;;;0.70;0.70;;;21.50;97.80;;;;;;5016286;28;20026;-75
2022/09/10 16:56:13;;;;;;;2.60;0.90;;;21.40;98.90;;;;;;5012559;28;20066;-74
2022/09/10 16:58:40;;;;;;;0.80;0.80;;;21.40;99.40;;;;;;5021869;28;20037;-74
2022/09/10 17:01:10;;;;;;;0.93;0.93;;;21.40;98.30;;;;;;5018318;28;20046;-74
2022/09/10 17:03:48;;;;;;;0.70;0.70;;;21.30;98.40;;;;;;5012927;28;20441;-75
2022/09/10 17:06:23;;;;;;;0.95;0.95;;;21.00;99.30;;;;;;5014932;28;20037;-74
2022/09/10 17:08:49;;;;;;;0.85;0.85;;;20.90;99.90;;;;;;5013691;28;20508;-74
2022/09/10 17:11:16;;;;;;;1.02;0.90;;;20.70;99.90;;;;;;5014710;28;20065;-74
2022/09/10 17:13:41;;;;;;;1.33;0.80;;;20.50;99.90;;;;;;5010648;28;20045;-75
2022/09/10 17:16:29;;;;;;;0.75;0.75;;;20.30;99.90;;;;;;5012913;28;20029;-73
2022/09/10 17:19:00;;;;;;;0.70;0.70;;;20.10;99.90;;;;;;5008461;28;20056;-73
2022/09/10 17:21:27;;;;;;;1.65;0.90;;;20.00;99.90;;;;;;5011770;28;20040;-74
2022/09/10 17:23:53;;;;;;;0.80;0.80;;;19.90;99.90;;;;;;5015926;28;20412;-75
2022/09/10 17:26:19;;;;;;;0.82;0.82;;;19.90;99.90;;;;;;5015796;28;20088;-76
2022/09/10 17:28:52;;;;;;;0.98;0.80;;;19.80;99.90;;;;;;5017462;28;20056;-76
2022/09/10 17:31:17;;;;;;;1.10;1.02;;;19.80;99.90;;;;;;5018691;28;20044;-76
2022/09/10 17:33:43;;;;;;;1.00;0.93;;;19.70;99.90;;;;;;5021740;28;20104;-75
2022/09/10 17:36:08;;;;;;;1.05;0.95;;;19.30;99.90;;;;;;5012619;28;20041;-73
2022/09/10 17:38:34;;;;;;;1.45;1.35;;;19.50;99.90;;;;;;5013697;28;20440;-75
2022/09/10 17:41:01;;;;;;;1.70;1.15;;;19.50;99.90;;;;;;5017058;28;20040;-73
2022/09/10 17:43:28;;;;;;;1.23;0.90;;;19.40;99.90;;;;;;5012657;28;20085;-73
2022/09/10 17:45:55;;;;;;;1.45;1.08;;;19.40;99.90;;;;;;5024410;28;20147;-75
2022/09/10 17:48:21;;;;;;;1.70;1.42;;;19.40;99.90;;;;;;5022798;28;20076;-73
2022/09/10 17:50:47;;;;;;;1.70;1.15;;;19.30;99.90;;;;;;5026317;28;20050;-72
2022/09/10 17:53:17;;;;;;;1.33;1.23;;;19.30;99.90;;;;;;5021586;28;20032;-75
2022/09/10 17:55:45;;;;;;;1.48;1.10;;;19.30;99.90;;;;;;5031363;28;20033;-75
2022/09/10 17:58:11;;;;;;;1.45;1.08;;;19.10;99.90;;;;;;5027083;28;20026;-76
2022/09/10 18:00:41;;;;;;;3.33;1.15;;;19.00;99.90;;;;;;5011490;28;20666;-76
2022/09/10 18:03:10;;;;;;;1.00;0.95;;;19.10;99.90;;;;;;5024869;28;20469;-85
2022/09/10 18:05:40;;;;;;;1.13;1.02;;;18.70;99.90;;;;;;5020992;28;20025;-74
2022/09/10 18:08:05;;;;;;;1.25;1.15;;;18.70;99.90;;;;;;5017559;28;20456;-77
2022/09/10 18:10:32;;;;;;;2.58;1.60;;;18.60;99.90;;;;;;5005813;28;20261;-74
2022/09/10 18:12:58;;;;;;;1.27;1.17;;;18.60;99.90;;;;;;5011883;28;20030;-75
2022/09/10 18:15:25;;;;;;;1.85;1.40;;;18.50;99.90;;;;;;5010935;28;20037;-74
2022/09/10 18:17:53;;;;;;;1.38;1.27;;;18.10;99.90;;;;;;5007754;28;20041;-75
2022/09/10 18:20:19;;;;;;;1.33;1.23;;;18.30;99.90;;;;;;5012803;28;20519;-75
2022/09/10 18:22:45;;;;;;;1.77;1.33;;;18.30;99.90;;;;;;5010070;28;20022;-76
2022/09/10 18:25:10;;;;;;;0.95;0.93;;;18.30;99.90;;;;;;5009283;28;20034;-74
2022/09/10 18:27:37;;;;;;;1.13;1.02;;;18.30;99.90;;;;;;5016034;28;20046;-73
2022/09/10 18:30:03;;;;;;;2.30;1.35;;;18.20;99.90;;;;;;5015218;28;20160;-75
2022/09/10 18:32:29;;;;;;;1.77;1.10;;;18.10;99.90;;;;;;5010662;28;20073;-75
2022/09/10 18:34:56;;;;;;;1.65;1.10;;;18.10;99.90;;;;;;5017570;28;20048;-73
2022/09/10 18:37:21;;;;;;;1.30;1.20;;;18.10;99.90;;;;;;5018837;28;20240;-72
2022/09/10 18:39:46;;;;;;;1.45;1.35;;;18.10;99.90;;;;;;5014862;28;20108;-73
2022/09/10 18:42:12;;;;;;;1.70;1.13;;;18.00;99.90;;;;;;5011922;28;20030;-75
2022/09/10 18:44:39;;;;;;;1.65;1.20;;;18.00;99.90;;;;;;5017033;28;20030;-74
2022/09/10 18:47:06;;;;;;;2.33;1.67;;;17.90;99.90;;;;;;5012704;28;20033;-75
2022/09/10 18:49:32;;;;;;;1.15;1.05;;;17.80;99.90;;;;;;5013028;28;20052;-75
2022/09/10 18:51:58;;;;;;;1.90;1.10;;;17.80;99.90;;;;;;5007723;28;20017;-73
2022/09/10 18:54:27;;;;;;;0.90;0.90;;;17.70;99.90;;;;;;5014344;28;20041;-73
2022/09/10 18:56:53;;;;;;;2.20;1.30;;;17.60;99.90;;;;;;5012142;28;20022;-72
2022/09/10 18:59:20;;;;;;;2.53;1.50;;;17.50;99.90;;;;;;5014501;28;20026;-73
2022/09/10 19:01:46;;;;;;;1.25;1.00;;;17.50;99.90;;;;;;5014512;28;20037;-74
2022/09/10 19:04:15;;;;;;;1.55;1.20;;;17.50;99.90;;;;;;5009355;28;20499;-73
2022/09/10 19:06:43;;;;;;;1.20;1.10;;;17.40;99.90;;;;;;5011757;28;20044;-72
2022/09/10 19:09:11;;;;;;;1.48;1.20;;;17.40;99.90;;;;;;5012122;28;20033;-75
2022/09/10 19:11:39;;;;;;;1.20;1.10;;;17.00;99.90;;;;;;5009779;28;20026;-75
2022/09/10 19:14:11;;;;;;;1.20;1.10;;;17.20;99.90;;;;;;5012610;28;20030;-75
2022/09/10 19:16:37;;;;;;;1.50;1.33;;;17.20;99.90;;;;;;5012468;28;20033;-74
2022/09/10 19:19:04;;;;;;;1.48;1.10;;;17.20;99.90;;;;;;5013180;28;20665;-77
2022/09/10 19:21:31;;;;;;;1.25;1.08;;;17.10;99.90;;;;;;5013037;28;20033;-77
2022/09/10 19:23:59;;;;;;;1.55;1.10;;;17.10;99.90;;;;;;5015369;28;20358;-76
2022/09/10 19:26:26;;;;;;;1.40;1.30;;;;;;;;;;5011010;28;20034;-76
2022/09/10 19:28:52;;;;;;;2.63;1.27;;;;;;;;;;5003297;28;21820;-77
2022/09/10 19:31:21;;;;;;;1.50;1.35;;;;;;;;;;5016665;28;20499;-78
2022/09/10 19:33:52;;;;;;;1.70;1.13;;;16.60;99.90;;;;;;5014123;28;20040;-78
2022/09/10 19:36:18;;;;;;;1.92;1.33;;;16.70;99.90;;;;;;5009615;28;20044;-78
2022/09/10 19:38:44;;;;;;;1.40;1.30;;;16.70;99.90;;;;;;5012886;28;20427;-79
2022/09/10 19:41:13;;;;;;;1.75;1.55;;;16.60;99.90;;;;;;5017159;28;20045;-79
2022/09/10 19:43:39;;;;;;;2.13;1.27;;;16.60;99.90;;;;;;5019123;28;20092;-79
2022/09/10 19:46:09;;;;;;;2.83;1.60;;;16.50;99.90;;;;;;5014515;28;20151;-78
2022/09/10 19:48:35;;;;;;;1.70;1.50;;;16.40;99.90;;;;;;5015996;28;20492;-76
2022/09/10 19:51:02;;;;;;;2.58;1.50;;;16.40;99.90;;;;;;5014282;28;20085;-76
2022/09/10 19:53:30;;;;;;;2.38;1.77;;;;;;;;;;5016704;28;20101;-76
2022/09/10 19:56:04;;;;;;;4.30;1.63;;;15.90;99.90;;;;;;5010397;28;20449;-78
2022/09/10 19:58:30;;;;;;;1.92;1.58;;;16.20;99.90;;;;;;5015409;28;20040;-77
2022/09/10 20:00:56;;;;;;;2.88;1.85;;;;;;;;;;5012032;28;20029;-77
2022/09/10 20:03:23;;;;;;;3.05;1.92;;;;;;;;;;5013723;28;20771;-77
2022/09/10 20:05:49;;;;;;;2.38;1.90;;;;;;;;;;5017365;28;20018;-77
2022/09/10 20:08:14;;;;;;;2.95;1.85;;;15.80;99.90;;;;;;5016385;28;20017;-77
2022/09/10 20:10:48;;;;;;;3.22;1.98;;;;;;;;;;5030125;28;20083;-77
2022/09/10 20:13:16;;;;;;;6.90;2.10;;;;;;;;;;5019098;28;20075;-77